• Join FlightAware (Why Join?)
  • Login
  • US Flag 
12:53AM EDT


 

Airport Tracker/Info


-or-


 

Live Flight TrackerFlight Track Log ✈ C-FCJS ✈ 01-Sep-2013 ✈ CYEE - CYFD

Flight Track Log - Related Links

Times and Time Zones

All times are in EDT time to prevent confusion due to time zone crossing. See the C-FCJS flight status page for this flight to view local times or setup timezone preferences in your user account.

Time Position Orientation Groundspeed Altitude Reporting Facility
EDT Latitude Longitude Course Direction KTS MPH feet Rate Location/Type
12:24PM 45.0833 -78.4500 235° Southwest 170 196 5,600  Level Toronto Center
12:25PM 45.0667 -78.4833 235° Southwest 120 138 6,100 540 Climbing Toronto Center
12:26PM 45.0500 -78.5167 235° Southwest 120 138 6,700 540 Climbing Toronto Center
12:27PM 45.0333 -78.5667 245° Southwest 120 138 7,200 480 Climbing Toronto Center
12:28PM 45.0167 -78.6000 235° Southwest 130 150 7,700 360 Climbing Toronto Center
12:29PM 45.0000 -78.6500 245° Southwest 130 150 8,000 120 Climbing Toronto Center
12:30PM 44.9833 -78.7167 251° West 150 173 8,000 -60 Level Toronto Center
12:31PM 44.9500 -78.7667 227° Southwest 160 184 7,900  Descending Toronto Center
12:32PM 44.9333 -78.8000 235° Southwest 160 184 8,000  Climbing Toronto Center
12:33PM 44.9167 -78.8833 254° West 160 184 7,900  Descending Toronto Center
12:34PM 44.9000 -78.9333 245° Southwest 160 184 8,000  Climbing Toronto Center
12:35PM 44.8667 -79.0000 235° Southwest 160 184 7,900  Descending Toronto Center
12:36PM 44.8500 -79.0500 245° Southwest 160 184 8,000  Climbing Toronto Center
12:37PM 44.8333 -79.1000 245° Southwest 160 184 7,900 -60 Descending Toronto Center
12:38PM 44.8167 -79.1667 251° West 160 184 7,900  Level Toronto Center
12:39PM 44.7833 -79.2167 227° Southwest 160 184 8,000  Climbing Toronto Center
12:40PM 44.7667 -79.2500 235° Southwest 160 184 8,000  Level Toronto Center
12:41PM 44.7500 -79.3333 254° West 160 184 8,000  Level Toronto Center
12:42PM 44.7167 -79.3667 215° Southwest 160 184 8,000  Level Toronto Center
12:43PM 44.7000 -79.4167 245° Southwest 160 184 8,000  Level Toronto Center
12:44PM 44.6833 -79.5000 254° West 160 184 8,000  Level Toronto Center
12:45PM 44.6667 -79.5333 235° Southwest 160 184 8,000  Level Toronto Center
12:46PM 44.6500 -79.5833 245° Southwest 150 173 8,000  Level Toronto Center
12:47PM 44.6167 -79.6333 227° Southwest 160 184 8,000  Level Toronto Center
12:48PM 44.6000 -79.7000 251° West 150 173 8,000  Level Toronto Center
12:49PM 44.5833 -79.7500 245° Southwest 160 184 8,000 -60 Level Toronto Center
12:50PM 44.5500 -79.8000 227° Southwest 150 173 7,900  Descending Toronto Center
12:51PM 44.5167 -79.8000 180° South 150 173 8,000  Climbing Toronto Center
12:52PM 44.4833 -79.8167 200° South 150 173 7,900  Descending Toronto Center
12:53PM 44.4333 -79.8500 205° Southwest 140 161 8,000  Climbing Toronto Center
12:54PM 44.4000 -79.8667 200° South 140 161 8,000  Level Toronto Center
12:55PM 44.3667 -79.8833 200° South 140 161 8,000  Level Toronto Center
12:56PM 44.3333 -79.9167 216° Southwest 140 161 8,000  Level Toronto Center
12:57PM 44.2833 -79.9167 180° South 140 161 8,000  Level Toronto Center
12:58PM 44.2500 -79.9333 200° South 140 161 8,000  Level Toronto Center
12:59PM 44.2167 -79.9667 216° Southwest 140 161 8,000  Level Toronto Center
01:00PM 44.1833 -79.9833 200° South 140 161 8,000  Level Toronto Center
01:01PM 44.1500 -80.0000 200° South 140 161 8,000  Level Toronto Center
01:02PM 44.1000 -80.0333 206° Southwest 150 173 8,000  Level Toronto Center
01:03PM 44.0667 -80.0500 200° South 150 173 8,000  Level Toronto Center
01:04PM 44.0333 -80.0500 180° South 150 173 8,000  Level Toronto Center
01:05PM 43.9833 -80.0667 193° South 150 173 8,000  Level Toronto Center
01:06PM 43.9500 -80.1000 216° Southwest 140 161 8,000  Level Toronto Center
01:07PM 43.9167 -80.1167 200° South 150 173 8,000  Level Toronto Center
01:08PM 43.8833 -80.1500 216° Southwest 150 173 8,000 -300 Level Toronto Center
01:09PM 43.8333 -80.1667 194° South 160 184 7,400 -540 Descending Toronto Center
01:10PM 43.8000 -80.1833 200° South 160 184 7,000 -240 Descending Toronto Center
01:11PM 43.7500 -80.2167 206° Southwest 150 173 7,000  Level Toronto Center
01:12PM 43.7167 -80.2333 200° South 140 161 7,000  Level Toronto Center
01:13PM 43.6833 -80.2333 180° South 140 161 7,000 -300 Level Toronto Center
01:14PM 43.6500 -80.2500 200° South 150 173 6,500 -600 Descending Toronto Center
01:15PM 43.6000 -80.2500 180° South 160 184 5,900 -540 Descending Toronto Center
01:16PM 43.5500 -80.2500 180° South 150 173 5,500 -420 Descending Toronto Center
01:17PM 43.5167 -80.2500 180° South 150 173 5,100 -300 Descending Toronto Center
01:18PM 43.4833 -80.2500 180° South 140 161 5,000 -60 Descending Toronto Center
01:19PM 43.4333 -80.2500 180° South 140 161 5,000  Level Toronto Center
01:20PM 43.4000 -80.2500 180° South 130 150 5,000  Level Toronto Center
01:21PM 43.3667 -80.2500 180° South 130 150 5,000 -420 Level Toronto Center
01:23PM 43.2833 -80.2333 172° South 150 173 3,900 -360 Descending Toronto Center
01:24PM 43.2667 -80.1833 115° Southeast 130 150 4,000  Climbing Toronto Center
01:25PM 43.2500 -80.1667 144° Southeast 110 127 4,000 -420 Level Toronto Center
01:26PM 43.2167 -80.2000 216° Southwest 130 150 3,200 -840 Descending Toronto Center
01:27PM 43.1833 -80.2500 228° Southwest 140 161 2,400 -840 Descending Toronto Center
01:29PM 43.1601 -80.2914 190° South  Level Estimated
01:36PM 43.1167 -80.3333 190° South  Level FlightAware Approximate
01:37PM 43.1314 -80.3425 190° South  Level Estimated
01:38PM 43.1314 -80.3425 190° South  Level Estimated
01:39PM 43.1314 -80.3425 190° South  Level Estimated
01:40PM 43.1314 -80.3425 190° South  Level Estimated
01:41PM 43.1314 -80.3425 190° South  Level Estimated
01:42PM 43.1314 -80.3425 190° South  Level Estimated
01:43PM 43.1314 -80.3425 190° South  Level Estimated
01:44PM 43.1314 -80.3425 190° South  Level Estimated
01:45PM 43.1314 -80.3425 190° South  Level Estimated